createdAt,value
2017-10-20T00:01:08.292Z,0
2017-10-20T00:02:20.860Z,0
2017-10-20T00:03:33.423Z,0
2017-10-20T00:04:45.668Z,0
2017-10-20T00:05:58.164Z,0
2017-10-20T00:07:10.416Z,0
2017-10-20T00:08:22.979Z,0
2017-10-20T00:09:35.553Z,0
2017-10-20T00:10:47.797Z,0
2017-10-20T00:12:00.368Z,0
2017-10-20T00:13:12.937Z,0
2017-10-20T00:14:24.866Z,0
2017-10-20T00:15:37.104Z,0
2017-10-20T00:16:49.676Z,0
2017-10-20T00:18:02.254Z,0
2017-10-20T00:19:14.191Z,0
2017-10-20T00:20:26.749Z,0
2017-10-20T00:21:39.008Z,0
2017-10-20T00:22:51.579Z,0
2017-10-20T00:24:04.149Z,0
2017-10-20T00:25:16.394Z,0
2017-10-20T00:26:28.964Z,0
2017-10-20T00:27:41.220Z,0
2017-10-20T00:28:53.790Z,0
2017-10-20T00:30:06.374Z,0
2017-10-20T00:31:18.947Z,0
2017-10-20T00:32:31.493Z,0
2017-10-20T00:33:43.738Z,0
2017-10-20T00:34:55.984Z,0
2017-10-20T00:36:08.260Z,0
2017-10-20T00:37:20.500Z,0
2017-10-20T00:38:33.071Z,0
2017-10-20T00:39:45.630Z,0
2017-10-20T00:40:58.215Z,0
2017-10-20T00:42:09.808Z,0
2017-10-20T00:43:22.379Z,0
2017-10-20T00:44:34.625Z,0
2017-10-20T00:45:47.203Z,0
2017-10-20T00:46:59.765Z,0
2017-10-20T00:48:12.011Z,0
2017-10-20T00:49:24.882Z,0
2017-10-20T00:50:37.453Z,0
2017-10-20T00:51:50.031Z,0
2017-10-20T00:53:02.596Z,0
2017-10-20T00:54:15.174Z,0
2017-10-20T00:55:27.436Z,0
2017-10-20T00:56:40.006Z,0
2017-10-20T00:57:52.577Z,0
2017-10-20T00:59:04.822Z,0
2017-10-20T01:00:17.320Z,0
2017-10-20T01:01:29.897Z,0
2017-10-20T01:02:42.464Z,0
2017-10-20T01:03:54.721Z,0
2017-10-20T01:05:07.312Z,0
2017-10-20T01:06:19.896Z,0
2017-10-20T01:07:32.141Z,0
2017-10-20T01:08:44.388Z,0
2017-10-20T01:09:56.641Z,0
2017-10-20T01:11:09.203Z,0
2017-10-20T01:12:21.764Z,0
2017-10-20T01:13:34.019Z,0
2017-10-20T01:14:46.255Z,0
2017-10-20T01:15:58.186Z,0
2017-10-20T01:17:10.432Z,0
2017-10-20T01:18:22.703Z,0
2017-10-20T01:19:34.955Z,0
2017-10-20T01:20:47.544Z,0
2017-10-20T01:22:00.115Z,0
2017-10-20T01:23:12.715Z,0
2017-10-20T01:24:25.282Z,0
2017-10-20T01:25:36.884Z,0
2017-10-20T01:26:49.446Z,0
2017-10-20T01:28:01.675Z,0
2017-10-20T01:29:14.239Z,0
2017-10-20T01:30:26.828Z,0
2017-10-20T01:31:39.080Z,0
2017-10-20T01:32:51.584Z,0
2017-10-20T01:34:03.821Z,0
2017-10-20T01:35:16.068Z,0
2017-10-20T01:36:28.663Z,0
2017-10-20T01:37:41.233Z,0
2017-10-20T01:38:53.804Z,0
2017-10-20T01:40:06.375Z,0
2017-10-20T01:41:18.308Z,0
2017-10-20T01:42:30.541Z,0
2017-10-20T01:43:43.137Z,0
2017-10-20T01:44:55.708Z,0
2017-10-20T01:46:07.961Z,0
2017-10-20T01:47:20.530Z,0
2017-10-20T01:48:33.094Z,0
2017-10-20T01:49:45.665Z,0
2017-10-20T01:50:58.236Z,0
2017-10-20T01:52:10.482Z,0
2017-10-20T01:53:23.051Z,0
2017-10-20T01:54:35.621Z,0
2017-10-20T01:55:48.192Z,0
2017-10-20T01:57:00.749Z,0
2017-10-20T01:58:13.310Z,0
2017-10-20T01:59:25.554Z,0
2017-10-20T02:00:38.125Z,0
2017-10-20T02:01:50.697Z,0
2017-10-20T02:03:03.267Z,0
2017-10-20T02:04:15.867Z,0
2017-10-20T02:05:28.035Z,0
2017-10-20T02:06:40.604Z,0
2017-10-20T02:07:53.164Z,0
2017-10-20T02:09:05.420Z,0
2017-10-20T02:10:17.991Z,0
2017-10-20T02:11:29.912Z,0
2017-10-20T02:12:42.484Z,0
2017-10-20T02:13:55.054Z,0
2017-10-20T02:15:07.616Z,0
2017-10-20T02:16:19.869Z,0
2017-10-20T02:17:32.473Z,0
2017-10-20T02:18:44.742Z,0
2017-10-20T02:19:57.306Z,0
2017-10-20T02:21:09.886Z,0
2017-10-20T02:22:22.447Z,0
2017-10-20T02:23:35.019Z,0
2017-10-20T02:24:47.589Z,0
2017-10-20T02:26:00.168Z,0
2017-10-20T02:27:12.729Z,0
2017-10-20T02:28:24.983Z,0
2017-10-20T02:29:37.549Z,0
2017-10-20T02:30:50.119Z,0
2017-10-20T02:32:02.688Z,0
2017-10-20T02:33:14.933Z,0
2017-10-20T02:34:27.504Z,0
2017-10-20T02:35:39.751Z,0
2017-10-20T02:36:51.674Z,0
2017-10-20T02:38:04.241Z,0
2017-10-20T02:39:16.487Z,0
2017-10-20T02:40:29.059Z,0
2017-10-20T02:41:41.328Z,0
2017-10-20T02:42:53.924Z,0
2017-10-20T02:44:05.869Z,0
2017-10-20T02:45:18.449Z,0
2017-10-20T02:46:30.692Z,0
2017-10-20T02:47:43.244Z,0
2017-10-20T02:48:55.802Z,0
2017-10-20T02:50:07.398Z,0
2017-10-20T02:51:19.968Z,0
2017-10-20T02:52:32.539Z,0
2017-10-20T02:53:45.116Z,0
2017-10-20T02:54:57.060Z,0
2017-10-20T02:56:09.301Z,0
2017-10-20T02:57:21.557Z,0
2017-10-20T02:58:34.143Z,0
2017-10-20T02:59:46.312Z,0
2017-10-20T03:00:58.885Z,0
2017-10-20T03:02:11.454Z,0
2017-10-20T03:03:24.024Z,0
2017-10-20T03:04:36.277Z,0
2017-10-20T03:05:48.840Z,0
2017-10-20T03:07:01.093Z,0
2017-10-20T03:08:13.348Z,0
2017-10-20T03:09:24.928Z,0
2017-10-20T03:10:37.498Z,0
2017-10-20T03:11:50.069Z,0
2017-10-20T03:13:02.639Z,0
2017-10-20T03:14:15.199Z,0
2017-10-20T03:15:27.769Z,0
2017-10-20T03:16:40.351Z,0
2017-10-20T03:17:52.923Z,0
2017-10-20T03:19:05.201Z,0
2017-10-20T03:20:17.763Z,0
2017-10-20T03:21:29.937Z,0
2017-10-20T03:22:42.204Z,0
2017-10-20T03:23:54.775Z,0
2017-10-20T03:25:07.020Z,0
2017-10-20T03:26:19.591Z,0
2017-10-20T03:27:32.188Z,0
2017-10-20T03:28:44.432Z,0
2017-10-20T03:29:56.686Z,0
2017-10-20T03:31:09.308Z,0
2017-10-20T03:32:21.571Z,0
2017-10-20T03:33:33.841Z,0
2017-10-20T03:34:46.087Z,0
2017-10-20T03:35:58.331Z,0
2017-10-20T03:37:10.242Z,0
2017-10-20T03:38:22.849Z,0
2017-10-20T03:39:35.423Z,0
2017-10-20T03:40:47.998Z,0
2017-10-20T03:42:00.248Z,0
2017-10-20T03:43:12.805Z,0
2017-10-20T03:44:25.377Z,0
2017-10-20T03:45:37.947Z,0
2017-10-20T03:46:50.526Z,0
2017-10-20T03:48:02.771Z,0
2017-10-20T03:49:15.323Z,0
2017-10-20T03:50:27.912Z,0
2017-10-20T03:51:40.484Z,0
2017-10-20T03:52:53.046Z,0
2017-10-20T03:54:05.615Z,0
2017-10-20T03:55:17.536Z,0
2017-10-20T03:56:30.108Z,0
2017-10-20T03:57:42.387Z,0
2017-10-20T03:58:54.949Z,0
2017-10-20T04:00:07.195Z,0
2017-10-20T04:01:19.116Z,0
2017-10-20T04:02:31.368Z,0
2017-10-20T04:03:43.607Z,0
2017-10-20T04:04:56.166Z,0
2017-10-20T04:06:08.748Z,0
2017-10-20T04:07:21.324Z,0
2017-10-20T04:08:33.892Z,0
2017-10-20T04:09:46.460Z,0
2017-10-20T04:10:59.033Z,0
2017-10-20T04:12:11.604Z,0
2017-10-20T04:13:23.521Z,0
2017-10-20T04:14:35.755Z,0
2017-10-20T04:15:48.012Z,0
2017-10-20T04:17:00.583Z,0
2017-10-20T04:18:13.154Z,0
2017-10-20T04:19:25.399Z,0
2017-10-20T04:20:37.639Z,0
2017-10-20T04:21:50.218Z,0
2017-10-20T04:23:02.461Z,0
2017-10-20T04:24:15.057Z,0
2017-10-20T04:25:27.627Z,0
2017-10-20T04:26:40.438Z,0
2017-10-20T04:27:52.683Z,0
2017-10-20T04:29:04.940Z,0
2017-10-20T04:30:17.515Z,0
2017-10-20T04:31:29.463Z,0
2017-10-20T04:32:41.376Z,0
2017-10-20T04:33:53.622Z,0
2017-10-20T04:35:06.192Z,0
2017-10-20T04:36:18.451Z,0
2017-10-20T04:37:30.697Z,0
2017-10-20T04:38:43.243Z,0
2017-10-20T04:39:55.504Z,0
2017-10-20T04:41:07.754Z,0
2017-10-20T04:42:20.005Z,0
2017-10-20T04:43:32.270Z,0
2017-10-20T04:44:43.866Z,0
2017-10-20T04:45:56.418Z,0
2017-10-20T04:47:09.001Z,0
2017-10-20T04:48:21.878Z,0
2017-10-20T04:49:34.449Z,0
2017-10-20T04:50:47.011Z,0
2017-10-20T04:51:59.257Z,0
2017-10-20T04:53:11.827Z,0
2017-10-20T04:54:24.398Z,0
2017-10-20T04:55:36.975Z,0
2017-10-20T04:56:49.539Z,0
2017-10-20T04:58:02.110Z,0
2017-10-20T04:59:14.919Z,0
2017-10-20T05:00:27.501Z,0
2017-10-20T05:01:40.061Z,0
2017-10-20T05:02:52.319Z,0
2017-10-20T05:04:04.898Z,0
2017-10-20T05:05:17.133Z,0
2017-10-20T05:06:29.693Z,4
2017-10-20T05:07:42.264Z,4
2017-10-20T05:08:54.821Z,0
2017-10-20T05:10:07.372Z,4
2017-10-20T05:11:19.936Z,4
2017-10-20T05:12:32.187Z,4
2017-10-20T05:13:44.743Z,4
2017-10-20T05:14:57.332Z,4
2017-10-20T05:16:09.577Z,8
2017-10-20T05:17:21.816Z,8
2017-10-20T05:18:34.073Z,8
2017-10-20T05:19:46.656Z,12
2017-10-20T05:20:58.902Z,12
2017-10-20T05:22:10.831Z,16
2017-10-20T05:23:23.381Z,20
2017-10-20T05:24:35.952Z,24
2017-10-20T05:25:47.885Z,32
2017-10-20T05:27:00.442Z,36
2017-10-20T05:28:13.008Z,44
2017-10-20T05:29:25.598Z,52
2017-10-20T05:30:38.167Z,60
2017-10-20T05:31:50.662Z,72
2017-10-20T05:33:03.240Z,80
2017-10-20T05:34:15.166Z,96
2017-10-20T05:35:26.782Z,108
2017-10-20T05:36:39.028Z,128
2017-10-20T05:37:51.292Z,148
2017-10-20T05:39:02.913Z,172
2017-10-20T05:40:15.157Z,200
2017-10-20T05:41:27.403Z,228
2017-10-20T05:42:39.923Z,256
2017-10-20T05:43:52.154Z,284
2017-10-20T05:45:04.715Z,320
2017-10-20T05:46:16.960Z,352
2017-10-20T05:47:29.205Z,388
2017-10-20T05:48:41.778Z,432
2017-10-20T05:49:54.022Z,472
2017-10-20T05:51:06.592Z,524
2017-10-20T05:52:19.163Z,572
2017-10-20T05:53:31.409Z,624
2017-10-20T05:54:43.962Z,672
2017-10-20T05:55:56.534Z,720
2017-10-20T05:57:08.771Z,768
2017-10-20T05:58:21.017Z,816
2017-10-20T05:59:32.962Z,864
2017-10-20T06:00:45.537Z,920
2017-10-20T06:01:57.779Z,984
2017-10-20T06:03:10.358Z,1068
2017-10-20T06:04:22.296Z,1144
2017-10-20T06:05:34.869Z,1216
2017-10-20T06:06:47.120Z,1276
2017-10-20T06:07:59.690Z,1336
2017-10-20T06:09:11.920Z,1416
2017-10-20T06:10:23.855Z,1500
2017-10-20T06:11:36.445Z,1584
2017-10-20T06:12:49.015Z,1656
2017-10-20T06:14:01.593Z,1712
2017-10-20T06:15:13.858Z,1748
2017-10-20T06:16:25.784Z,1792
2017-10-20T06:17:38.348Z,1848
2017-10-20T06:18:50.593Z,1892
2017-10-20T06:20:03.163Z,1928
2017-10-20T06:21:15.419Z,1992
2017-10-20T06:22:27.680Z,2048
2017-10-20T06:23:39.301Z,2080
2017-10-20T06:24:51.555Z,2136
2017-10-20T06:26:04.367Z,2180
2017-10-20T06:27:16.938Z,2236
2017-10-20T06:28:29.184Z,2292
2017-10-20T06:29:41.439Z,2356
2017-10-20T06:30:53.999Z,2408
2017-10-20T06:32:06.570Z,2468
2017-10-20T06:33:19.145Z,2528
2017-10-20T06:34:31.711Z,2572
2017-10-20T06:35:44.271Z,2612
2017-10-20T06:36:56.536Z,2640
2017-10-20T06:38:09.099Z,2716
2017-10-20T06:39:21.020Z,2768
2017-10-20T06:40:33.579Z,2808
2017-10-20T06:41:46.210Z,2832
2017-10-20T06:42:58.157Z,2840
2017-10-20T06:44:10.727Z,2904
2017-10-20T06:45:23.328Z,2980
2017-10-20T06:46:35.626Z,3056
2017-10-20T06:47:48.196Z,3088
2017-10-20T06:49:00.766Z,3104
2017-10-20T06:50:13.345Z,3120
2017-10-20T06:51:25.284Z,3220
2017-10-20T06:52:37.546Z,3276
2017-10-20T06:53:50.117Z,3328
2017-10-20T06:55:02.676Z,3360
2017-10-20T06:56:14.932Z,3396
2017-10-20T06:57:27.179Z,3432
2017-10-20T06:58:39.425Z,3476
2017-10-20T06:59:51.670Z,3488
2017-10-20T07:01:03.923Z,3496
2017-10-20T07:02:16.161Z,3536
2017-10-20T07:03:28.741Z,3572
2017-10-20T07:04:41.328Z,3584
2017-10-20T07:05:53.898Z,3604
2017-10-20T07:07:06.169Z,3644
2017-10-20T07:08:18.746Z,3712
2017-10-20T07:09:31.019Z,3764
2017-10-20T07:10:43.281Z,3824
2017-10-20T07:11:55.208Z,3848
2017-10-20T07:13:07.780Z,3904
2017-10-20T07:14:20.342Z,3968
2017-10-20T07:15:32.274Z,3996
2017-10-20T07:16:44.842Z,4020
2017-10-20T07:17:57.405Z,4084
2017-10-20T07:19:09.650Z,4148
2017-10-20T07:20:22.472Z,4184
2017-10-20T07:21:34.391Z,4208
2017-10-20T07:22:46.646Z,4288
2017-10-20T07:23:59.232Z,4300
2017-10-20T07:25:11.804Z,4292
2017-10-20T07:26:24.374Z,4408
2017-10-20T07:27:36.634Z,4356
2017-10-20T07:28:49.190Z,4384
2017-10-20T07:30:01.773Z,4464
2017-10-20T07:31:14.032Z,4416
2017-10-20T07:32:26.280Z,4488
2017-10-20T07:33:38.224Z,4488
2017-10-20T07:34:50.469Z,4524
2017-10-20T07:36:02.715Z,4548
2017-10-20T07:37:14.961Z,4580
2017-10-20T07:38:27.541Z,4556
2017-10-20T07:39:40.102Z,4524
2017-10-20T07:40:52.715Z,4560
2017-10-20T07:42:04.972Z,4604
2017-10-20T07:43:17.528Z,4640
2017-10-20T07:44:30.110Z,4612
2017-10-20T07:45:42.680Z,4616
2017-10-20T07:46:54.601Z,4616
2017-10-20T07:48:07.184Z,4644
2017-10-20T07:49:19.776Z,4628
2017-10-20T07:50:32.338Z,4636
2017-10-20T07:51:44.909Z,4668
2017-10-20T07:52:57.429Z,4692
2017-10-20T07:54:09.708Z,4712
2017-10-20T07:55:21.646Z,4736
2017-10-20T07:56:34.216Z,4780
2017-10-20T07:57:46.461Z,4880
2017-10-20T07:58:59.044Z,4928
2017-10-20T08:00:11.311Z,4960
2017-10-20T08:01:23.882Z,4968
2017-10-20T08:02:36.478Z,4992
2017-10-20T08:03:49.048Z,4988
2017-10-20T08:05:01.611Z,4936
2017-10-20T08:06:13.880Z,4944
2017-10-20T08:07:26.451Z,4932
2017-10-20T08:08:39.023Z,4936
2017-10-20T08:09:51.301Z,4968
2017-10-20T08:11:03.889Z,5000
2017-10-20T08:12:16.134Z,5024
2017-10-20T08:13:28.705Z,5040
2017-10-20T08:14:41.275Z,5132
2017-10-20T08:15:53.835Z,5320
2017-10-20T08:17:06.092Z,5628
2017-10-20T08:18:18.663Z,5884
2017-10-20T08:19:31.233Z,6136
2017-10-20T08:20:43.513Z,6356
2017-10-20T08:21:55.785Z,6456
2017-10-20T08:23:07.767Z,6436
2017-10-20T08:24:20.082Z,6444
2017-10-20T08:25:32.743Z,6508
2017-10-20T08:26:45.050Z,6828
2017-10-20T08:27:56.719Z,7316
2017-10-20T08:29:08.389Z,7868
2017-10-20T08:30:20.709Z,8368
2017-10-20T08:31:33.353Z,8676
2017-10-20T08:32:45.366Z,8784
2017-10-20T08:33:58.000Z,8600
2017-10-20T08:35:10.616Z,8336
2017-10-20T08:36:23.257Z,8132
2017-10-20T08:37:35.594Z,7816
2017-10-20T08:38:47.578Z,7376
2017-10-20T08:40:00.252Z,6836
2017-10-20T08:41:12.872Z,6276
2017-10-20T08:42:25.166Z,6008
2017-10-20T08:43:37.808Z,6128
2017-10-20T08:44:50.448Z,6564
2017-10-20T08:46:02.776Z,7172
2017-10-20T08:47:15.421Z,7812
2017-10-20T08:48:27.743Z,8388
2017-10-20T08:49:39.762Z,8908
2017-10-20T08:50:52.430Z,8792
2017-10-20T08:52:04.105Z,8904
2017-10-20T08:53:16.733Z,9236
2017-10-20T08:54:29.058Z,9268
2017-10-20T08:55:41.338Z,9012
2017-10-20T08:56:53.961Z,8616
2017-10-20T08:58:06.507Z,8140
2017-10-20T08:59:18.799Z,7848
2017-10-20T09:00:31.462Z,7712
2017-10-20T09:01:44.062Z,8012
2017-10-20T09:02:56.716Z,8292
2017-10-20T09:04:09.023Z,8528
2017-10-20T09:05:21.648Z,8040
2017-10-20T09:06:34.281Z,8200
2017-10-20T09:07:46.601Z,8028
2017-10-20T09:08:59.215Z,7912
2017-10-20T09:10:11.230Z,7888
2017-10-20T09:11:23.556Z,7360
2017-10-20T09:12:35.859Z,7100
2017-10-20T09:13:48.493Z,6684
2017-10-20T09:15:01.145Z,6608
2017-10-20T09:16:13.767Z,6428
2017-10-20T09:17:25.783Z,6308
2017-10-20T09:18:38.109Z,6284
2017-10-20T09:19:50.351Z,6272
2017-10-20T09:21:02.666Z,6236
2017-10-20T09:22:15.312Z,6196
2017-10-20T09:23:27.641Z,6196
2017-10-20T09:24:39.632Z,6236
2017-10-20T09:25:52.277Z,6328
2017-10-20T09:27:04.282Z,6460
2017-10-20T09:28:16.893Z,6684
2017-10-20T09:29:29.513Z,6864
2017-10-20T09:30:41.837Z,7152
2017-10-20T09:31:54.482Z,7404
2017-10-20T09:33:06.456Z,7612
2017-10-20T09:34:19.081Z,7876
2017-10-20T09:35:31.719Z,8320
2017-10-20T09:36:44.339Z,9128
2017-10-20T09:37:56.980Z,9312
2017-10-20T09:39:09.610Z,9616
2017-10-20T09:40:21.906Z,9748
2017-10-20T09:41:34.151Z,10036
2017-10-20T09:42:46.467Z,10272
2017-10-20T09:43:59.131Z,10912
2017-10-20T09:45:11.465Z,11276
2017-10-20T09:46:23.459Z,11800
2017-10-20T09:47:35.778Z,12164
2017-10-20T09:48:48.449Z,12560
2017-10-20T09:50:00.451Z,12728
2017-10-20T09:51:12.440Z,12644
2017-10-20T09:52:25.060Z,13000
2017-10-20T09:53:37.383Z,13008
2017-10-20T09:54:49.679Z,13140
2017-10-20T09:56:02.333Z,13736
2017-10-20T09:57:14.307Z,14044
2017-10-20T09:58:26.957Z,14632
2017-10-20T09:59:39.282Z,15168
2017-10-20T10:00:51.985Z,16400
2017-10-20T10:02:03.947Z,16452
2017-10-20T10:03:16.240Z,16628
2017-10-20T10:04:28.878Z,16276
2017-10-20T10:05:40.913Z,16248
2017-10-20T10:06:53.227Z,16216
2017-10-20T10:08:05.860Z,16172
2017-10-20T10:09:18.500Z,16132
2017-10-20T10:10:31.190Z,16200
2017-10-20T10:11:43.494Z,16260
2017-10-20T10:12:55.808Z,16356
2017-10-20T10:14:08.146Z,16380
2017-10-20T10:15:20.782Z,16416
2017-10-20T10:16:33.106Z,16440
2017-10-20T10:17:45.440Z,16352
2017-10-20T10:18:57.455Z,15996
2017-10-20T10:20:09.468Z,15644
2017-10-20T10:21:21.429Z,15324
2017-10-20T10:22:34.053Z,15064
2017-10-20T10:23:46.382Z,14892
2017-10-20T10:24:59.046Z,14776
2017-10-20T10:26:11.064Z,14632
2017-10-20T10:27:23.694Z,14404
2017-10-20T10:28:36.303Z,14240
2017-10-20T10:29:48.944Z,14192
2017-10-20T10:31:01.578Z,14260
2017-10-20T10:32:13.895Z,14364
2017-10-20T10:33:26.567Z,14460
2017-10-20T10:34:39.210Z,14612
2017-10-20T10:35:51.556Z,14768
2017-10-20T10:37:04.225Z,14824
2017-10-20T10:38:16.839Z,14776
2017-10-20T10:39:29.492Z,14580
2017-10-20T10:40:42.183Z,14376
2017-10-20T10:41:54.487Z,14296
2017-10-20T10:43:07.129Z,14612
2017-10-20T10:44:19.479Z,15284
2017-10-20T10:45:32.096Z,16176
2017-10-20T10:46:44.387Z,16672
2017-10-20T10:47:56.366Z,17120
2017-10-20T10:49:08.728Z,16760
2017-10-20T10:50:21.378Z,16140
2017-10-20T10:51:33.689Z,15140
2017-10-20T10:52:46.343Z,14172
2017-10-20T10:53:58.994Z,13324
2017-10-20T10:55:10.690Z,12332
2017-10-20T10:56:23.353Z,11692
2017-10-20T10:57:36.255Z,11380
2017-10-20T10:58:48.569Z,11416
2017-10-20T11:00:00.871Z,11692
2017-10-20T11:01:13.518Z,12128
2017-10-20T11:02:26.159Z,12696
2017-10-20T11:03:38.851Z,13248
2017-10-20T11:04:51.503Z,13456
2017-10-20T11:06:03.822Z,13476
2017-10-20T11:07:16.492Z,13512
2017-10-20T11:08:28.486Z,13740
2017-10-20T11:09:40.792Z,13824
2017-10-20T11:10:53.101Z,13668
2017-10-20T11:12:05.415Z,13544
2017-10-20T11:13:17.738Z,13564
2017-10-20T11:14:30.045Z,14008
2017-10-20T11:15:42.710Z,14508
2017-10-20T11:16:55.357Z,14508
2017-10-20T11:18:07.352Z,14140
2017-10-20T11:19:19.993Z,13396
2017-10-20T11:20:32.298Z,12384
2017-10-20T11:21:44.589Z,11496
2017-10-20T11:22:56.905Z,10932
2017-10-20T11:24:08.607Z,10792
2017-10-20T11:25:21.227Z,10740
2017-10-20T11:26:33.576Z,10628
2017-10-20T11:27:45.897Z,10500
2017-10-20T11:28:57.902Z,10208
2017-10-20T11:30:10.507Z,9876
2017-10-20T11:31:23.151Z,9616
2017-10-20T11:32:35.805Z,9428
2017-10-20T11:33:48.462Z,9176
2017-10-20T11:35:01.106Z,8768
2017-10-20T11:36:13.116Z,8360
2017-10-20T11:37:25.787Z,8024
2017-10-20T11:38:37.774Z,7716
2017-10-20T11:39:50.421Z,7436
2017-10-20T11:41:03.071Z,7148
2017-10-20T11:42:15.390Z,6860
2017-10-20T11:43:27.708Z,6560
2017-10-20T11:44:40.058Z,6224
2017-10-20T11:45:52.714Z,5860
2017-10-20T11:47:05.026Z,5548
2017-10-20T11:48:17.015Z,5316
2017-10-20T11:49:29.341Z,5196
2017-10-20T11:50:41.981Z,5244
2017-10-20T11:51:54.306Z,5476
2017-10-20T11:53:06.977Z,5884
2017-10-20T11:54:19.626Z,6324
2017-10-20T11:55:31.971Z,6692
2017-10-20T11:56:44.585Z,6872
2017-10-20T11:57:56.885Z,6760
2017-10-20T11:59:09.226Z,6468
2017-10-20T12:00:21.551Z,6156
2017-10-20T12:01:33.843Z,5828
2017-10-20T12:02:46.720Z,5508
2017-10-20T12:03:59.366Z,5208
2017-10-20T12:05:11.357Z,5008
2017-10-20T12:06:23.999Z,4888
2017-10-20T12:07:36.648Z,4772
2017-10-20T12:08:48.970Z,4636
2017-10-20T12:10:00.961Z,4560
2017-10-20T12:11:13.599Z,4688
2017-10-20T12:12:25.886Z,5068
2017-10-20T12:13:38.181Z,5724
2017-10-20T12:14:50.849Z,6600
2017-10-20T12:16:03.148Z,7484
2017-10-20T12:17:15.810Z,8036
2017-10-20T12:18:28.437Z,8040
2017-10-20T12:19:41.090Z,7564
2017-10-20T12:20:53.731Z,6736
2017-10-20T12:22:06.047Z,5868
2017-10-20T12:23:18.706Z,5124
2017-10-20T12:24:30.712Z,4520
2017-10-20T12:25:42.056Z,4124
2017-10-20T12:26:54.749Z,4040
2017-10-20T12:28:07.064Z,4296
2017-10-20T12:29:19.025Z,4804
2017-10-20T12:30:31.713Z,5388
2017-10-20T12:31:44.359Z,5828
2017-10-20T12:32:57.015Z,5948
2017-10-20T12:34:09.028Z,5696
2017-10-20T12:35:21.675Z,5260
2017-10-20T12:36:33.995Z,4900
2017-10-20T12:37:46.614Z,4752
2017-10-20T12:38:59.244Z,4824
2017-10-20T12:40:10.969Z,5108
2017-10-20T12:41:23.595Z,5556
2017-10-20T12:42:35.898Z,5996
2017-10-20T12:43:47.873Z,6280
2017-10-20T12:45:00.515Z,6388
2017-10-20T12:46:13.142Z,6324
2017-10-20T12:47:25.810Z,6096
2017-10-20T12:48:37.825Z,5852
2017-10-20T12:49:50.150Z,5576
2017-10-20T12:51:02.792Z,5292
2017-10-20T12:52:15.421Z,4996
2017-10-20T12:53:27.729Z,4764
2017-10-20T12:54:40.377Z,4604
2017-10-20T12:55:53.045Z,4508
2017-10-20T12:57:05.021Z,4464
2017-10-20T12:58:17.666Z,4476
2017-10-20T12:59:30.347Z,4484
2017-10-20T13:00:42.961Z,4416
2017-10-20T13:01:55.606Z,4248
2017-10-20T13:03:07.920Z,4020
2017-10-20T13:04:20.551Z,3788
2017-10-20T13:05:32.844Z,3632
2017-10-20T13:06:45.195Z,3552
2017-10-20T13:07:57.852Z,3520
2017-10-20T13:09:09.849Z,3520
2017-10-20T13:10:22.497Z,3620
2017-10-20T13:11:34.467Z,3816
2017-10-20T13:12:46.785Z,4204
2017-10-20T13:13:59.080Z,4792
2017-10-20T13:15:11.407Z,5580
2017-10-20T13:16:24.051Z,6368
2017-10-20T13:17:36.689Z,6976
2017-10-20T13:18:49.266Z,7316
2017-10-20T13:20:01.909Z,7496
2017-10-20T13:21:14.229Z,7528
2017-10-20T13:22:26.875Z,7440
2017-10-20T13:23:39.188Z,7284
2017-10-20T13:24:51.796Z,7172
2017-10-20T13:26:04.095Z,7092
2017-10-20T13:27:16.075Z,6996
2017-10-20T13:28:28.403Z,6796
2017-10-20T13:29:41.027Z,6580
2017-10-20T13:30:53.714Z,6456
2017-10-20T13:32:06.047Z,6360
2017-10-20T13:33:18.719Z,6232
2017-10-20T13:34:31.386Z,6052
2017-10-20T13:35:43.704Z,5868
2017-10-20T13:36:56.031Z,5752
2017-10-20T13:38:08.677Z,5748
2017-10-20T13:39:21.006Z,5828
2017-10-20T13:40:33.636Z,5968
2017-10-20T13:41:45.305Z,6052
2017-10-20T13:42:57.962Z,6084
2017-10-20T13:44:10.597Z,6088
2017-10-20T13:45:23.235Z,6044
2017-10-20T13:46:35.517Z,5988
2017-10-20T13:47:47.841Z,5908
2017-10-20T13:49:00.457Z,5828
2017-10-20T13:50:13.092Z,5728
2017-10-20T13:51:25.400Z,5604
2017-10-20T13:52:37.720Z,5484
2017-10-20T13:53:50.056Z,5348
2017-10-20T13:55:02.661Z,5192
2017-10-20T13:56:15.307Z,4996
2017-10-20T13:57:27.627Z,4792
2017-10-20T13:58:40.295Z,4592
2017-10-20T13:59:52.640Z,4448
2017-10-20T14:01:04.957Z,4436
2017-10-20T14:02:16.959Z,4576
2017-10-20T14:03:29.259Z,4768
2017-10-20T14:04:41.603Z,4996
2017-10-20T14:05:53.988Z,5236
2017-10-20T14:07:06.617Z,5480
2017-10-20T14:08:19.268Z,5656
2017-10-20T14:09:31.913Z,5680
2017-10-20T14:10:43.915Z,5524
2017-10-20T14:11:55.869Z,5144
2017-10-20T14:13:08.497Z,4536
2017-10-20T14:14:21.142Z,3812
2017-10-20T14:15:33.792Z,3240
2017-10-20T14:16:46.433Z,2976
2017-10-20T14:17:59.054Z,2908
2017-10-20T14:19:11.681Z,2868
2017-10-20T14:20:24.019Z,2792
2017-10-20T14:21:36.645Z,2728
2017-10-20T14:22:48.311Z,2736
2017-10-20T14:24:00.956Z,2664
2017-10-20T14:25:13.605Z,2508
2017-10-20T14:26:25.599Z,2432
2017-10-20T14:27:38.223Z,2452
2017-10-20T14:28:50.231Z,2564
2017-10-20T14:30:02.585Z,2756
2017-10-20T14:31:14.565Z,3076
2017-10-20T14:32:26.875Z,3540
2017-10-20T14:33:39.577Z,3952
2017-10-20T14:34:51.895Z,4060
2017-10-20T14:36:04.219Z,3792
2017-10-20T14:37:16.547Z,3416
2017-10-20T14:38:28.853Z,3132
2017-10-20T14:39:41.479Z,3196
2017-10-20T14:40:53.799Z,3560
2017-10-20T14:42:06.459Z,3944
2017-10-20T14:43:18.484Z,4136
2017-10-20T14:44:31.125Z,4072
2017-10-20T14:45:43.782Z,3640
2017-10-20T14:46:56.422Z,3084
2017-10-20T14:48:08.786Z,2764
2017-10-20T14:49:21.437Z,2708
2017-10-20T14:50:34.075Z,2736
2017-10-20T14:51:45.749Z,2820
2017-10-20T14:52:58.383Z,3080
2017-10-20T14:54:10.695Z,3144
2017-10-20T14:55:23.307Z,2956
2017-10-20T14:56:35.943Z,2604
2017-10-20T14:57:48.593Z,2232
2017-10-20T14:59:00.876Z,1944
2017-10-20T15:00:13.525Z,1780
2017-10-20T15:01:26.193Z,1668
2017-10-20T15:02:38.514Z,1608
2017-10-20T15:03:51.135Z,1592
2017-10-20T15:05:03.801Z,1648
2017-10-20T15:06:16.455Z,1736
2017-10-20T15:07:29.079Z,1844
2017-10-20T15:08:41.695Z,1972
2017-10-20T15:09:54.344Z,2064
2017-10-20T15:11:06.358Z,2136
2017-10-20T15:12:18.678Z,2164
2017-10-20T15:13:31.320Z,2100
2017-10-20T15:14:43.624Z,2000
2017-10-20T15:15:56.299Z,1916
2017-10-20T15:17:08.914Z,1948
2017-10-20T15:18:21.803Z,1952
2017-10-20T15:19:34.129Z,1804
2017-10-20T15:20:45.798Z,1624
2017-10-20T15:21:57.789Z,1472
2017-10-20T15:23:10.114Z,1384
2017-10-20T15:24:22.764Z,1336
2017-10-20T15:25:35.064Z,1296
2017-10-20T15:26:47.380Z,1244
2017-10-20T15:28:00.020Z,1144
2017-10-20T15:29:12.640Z,1052
2017-10-20T15:30:25.292Z,1008
2017-10-20T15:31:37.935Z,1076
2017-10-20T15:32:50.258Z,1180
2017-10-20T15:34:02.558Z,1176
2017-10-20T15:35:14.225Z,1056
2017-10-20T15:36:26.869Z,908
2017-10-20T15:37:39.526Z,776
2017-10-20T15:38:52.157Z,692
2017-10-20T15:40:05.082Z,660
2017-10-20T15:41:17.092Z,648
2017-10-20T15:42:29.373Z,636
2017-10-20T15:43:41.040Z,608
2017-10-20T15:44:53.036Z,568
2017-10-20T15:46:05.687Z,532
2017-10-20T15:47:17.995Z,496
2017-10-20T15:48:30.291Z,456
2017-10-20T15:49:42.623Z,404
2017-10-20T15:50:54.949Z,348
2017-10-20T15:52:07.292Z,288
2017-10-20T15:53:19.607Z,236
2017-10-20T15:54:32.256Z,192
2017-10-20T15:55:44.869Z,164
2017-10-20T15:56:57.511Z,136
2017-10-20T15:58:09.809Z,116
2017-10-20T15:59:22.442Z,108
2017-10-20T16:00:35.038Z,104
2017-10-20T16:01:47.415Z,104
2017-10-20T16:03:00.049Z,100
2017-10-20T16:04:11.701Z,96
2017-10-20T16:05:23.688Z,88
2017-10-20T16:06:35.687Z,88
2017-10-20T16:07:47.683Z,88
2017-10-20T16:09:00.328Z,88
2017-10-20T16:10:12.623Z,80
2017-10-20T16:11:24.615Z,76
2017-10-20T16:12:37.261Z,68
2017-10-20T16:13:49.558Z,56
2017-10-20T16:15:01.853Z,48
2017-10-20T16:16:14.206Z,44
2017-10-20T16:17:26.526Z,32
2017-10-20T16:18:39.191Z,28
2017-10-20T16:19:51.809Z,20
2017-10-20T16:21:04.444Z,16
2017-10-20T16:22:17.083Z,16
2017-10-20T16:23:29.428Z,12
2017-10-20T16:24:42.100Z,8
2017-10-20T16:25:54.729Z,8
2017-10-20T16:27:07.064Z,8
2017-10-20T16:28:19.384Z,8
2017-10-20T16:29:32.000Z,4
2017-10-20T16:30:43.995Z,4
2017-10-20T16:31:56.649Z,4
2017-10-20T16:33:08.941Z,0
2017-10-20T16:34:21.565Z,4
2017-10-20T16:35:34.207Z,0
2017-10-20T16:36:46.499Z,0
2017-10-20T16:37:58.491Z,0